Time;durP1;ratioP1;P1;durP2;ratioP2;P2;SDS_P1;SDS_P2;PMS_P1;PMS_P2;Temp;Humidity;BMP_temperature;BMP_pressure;BME280_temperature;BME280_humidity;BME280_pressure;Samples;Min_cycle;Max_cycle;Signal;HPM_P1;HPM_P2
2022/08/24 00:01:05;;;;;;;14.98;6.10;;;;;;;;;;4235557;33;20120;-75
2022/08/24 00:03:32;;;;;;;15.00;6.22;;;;;;;;;;4260524;33;20117;-73
2022/08/24 00:34:26;;;;;;;12.93;7.78;;;;;;;;;;4666779;28;20107;-62
2022/08/24 00:36:53;;;;;;;14.30;7.87;;;;;;;;;;4242912;33;20758;-62
2022/08/24 00:39:19;;;;;;;11.50;7.95;;;;;;;;;;4245951;33;20127;-62
2022/08/24 00:41:47;;;;;;;21.87;8.30;;;;;;;;;;4245961;33;20180;-62
2022/08/24 00:44:15;;;;;;;25.50;10.05;;;;;;;;;;4230573;33;20093;-59
2022/08/24 00:47:00;;;;;;;26.37;9.98;;;;;;;;;;4231656;33;20093;-59
2022/08/24 00:49:41;;;;;;;22.62;9.75;;;;;;;;;;4231911;33;20141;-58
2022/08/24 00:52:13;;;;;;;20.25;9.85;;;;;;;;;;4231269;33;20136;-60
2022/08/24 00:54:41;;;;;;;19.48;8.30;;;;;;;;;;4245998;33;20119;-59
2022/08/24 00:57:09;;;;;;;14.98;8.18;;;;;;;;;;4232686;33;20089;-59
2022/08/24 00:59:39;;;;;;;15.52;8.15;;;;;;;;;;4232915;33;20113;-64
2022/08/24 01:02:10;;;;;;;14.63;7.80;;;;;;;;;;4232839;33;20131;-63
2022/08/24 01:04:45;;;;;;;15.88;8.55;;;;;;;;;;4232588;33;20206;-63
2022/08/24 01:07:11;;;;;;;18.00;7.57;;;;;;;;;;4232647;33;20215;-63
2022/08/24 01:09:37;;;;;;;15.20;7.32;;;;;;;;;;4243117;33;20113;-66
2022/08/24 01:12:04;;;;;;;8.82;6.55;;;;;;;;;;4233739;33;20116;-64
2022/08/24 01:14:30;;;;;;;12.57;7.68;;;;;;;;;;4233869;33;20208;-63
2022/08/24 01:19:46;;;;;;;17.62;7.87;;;;;;;;;;4233866;33;20212;-63
2022/08/24 01:22:28;;;;;;;15.93;7.87;;;;;;;;;;4232397;33;20109;-65
2022/08/24 01:24:55;;;;;;;9.23;6.95;;;;;;;;;;4233937;33;20137;-64
2022/08/24 01:27:21;;;;;;;12.73;7.60;;;;;;;;;;4233959;33;20108;-63
2022/08/24 01:29:48;;;;;;;18.10;7.43;;;;;;;;;;4233817;33;20140;-64
2022/08/24 01:32:14;;;;;;;13.50;7.20;;;;;;;;;;4232090;33;20089;-64
2022/08/24 01:34:40;;;;;;;10.18;6.82;;;;;;;;;;4233685;33;20189;-64
2022/08/24 01:37:09;;;;;;;21.08;7.55;;;;;;;;;;4248423;33;20112;-64
2022/08/24 01:39:39;;;;;;;9.20;6.90;;;;;;;;;;4249124;33;20191;-64
2022/08/24 01:42:05;;;;;;;15.70;7.47;;;;;;;;;;4248567;33;20093;-64
2022/08/24 01:44:35;;;;;;;13.52;7.70;;;;;;;;;;4261848;33;20683;-64
2022/08/24 01:47:03;;;;;;;9.75;7.18;;;;;;;;;;4261813;33;20393;-64
2022/08/24 01:49:32;;;;;;;12.13;6.50;;;;;;;;;;4261845;33;20159;-64
2022/08/24 01:51:59;;;;;;;9.85;7.25;;;;;;;;;;4261763;33;20113;-64
2022/08/24 01:54:26;;;;;;;9.55;6.82;;;;;;;;;;4261507;33;20106;-64
2022/08/24 01:56:52;;;;;;;11.55;6.87;;;;;;;;;;4261518;33;20531;-63
2022/08/24 01:59:19;;;;;;;14.65;6.95;;;;;;;;;;4261747;33;20111;-64
2022/08/24 02:01:52;;;;;;;16.25;8.35;;;;;;;;;;4261515;33;20123;-64
2022/08/24 02:04:19;;;;;;;17.98;7.45;;;;;;;;;;4261620;33;20517;-64
2022/08/24 02:06:45;;;;;;;12.93;5.68;;;;;;;;;;4261435;33;20683;-64
2022/08/24 02:09:11;;;;;;;12.48;6.32;;;;;;;;;;4261617;33;20195;-64
2022/08/24 02:11:37;;;;;;;14.95;6.78;;;;;;;;;;4251686;33;20089;-64
2022/08/24 02:14:04;;;;;;;15.30;6.43;;;;;;;;;;4247703;33;20211;-64
2022/08/24 02:16:30;;;;;;;11.57;6.40;;;;;;;;;;4247311;33;20115;-64
2022/08/24 02:18:57;;;;;;;17.35;7.72;;;;;;;;;;4247386;33;20113;-64
2022/08/24 02:21:23;;;;;;;9.00;5.78;;;;;;;;;;4247179;33;20094;-64
2022/08/24 02:23:50;;;;;;;14.07;6.45;;;;;;;;;;4247320;33;20195;-64
2022/08/24 02:26:16;;;;;;;11.05;6.22;;;;;;;;;;4247163;33;20707;-63
2022/08/24 02:28:42;;;;;;;15.18;6.93;;;;;;;;;;4247323;33;20301;-63
2022/08/24 02:31:11;;;;;;;9.48;6.60;;;;;;;;;;4247151;33;20108;-63
2022/08/24 02:33:37;;;;;;;11.20;6.50;;;;;;;;;;4247067;33;20132;-64
2022/08/24 02:36:05;;;;;;;13.75;6.53;;;;;;;;;;4247193;33;20121;-64
2022/08/24 02:38:31;;;;;;;9.38;6.32;;;;;;;;;;4258157;33;20560;-64
2022/08/24 02:40:57;;;;;;;10.25;6.03;;;;;;;;;;4261199;33;20115;-64
2022/08/24 02:43:24;;;;;;;10.48;6.80;;;;;;;;;;4261237;33;20128;-64
2022/08/24 02:45:50;;;;;;;15.85;6.50;;;;;;;;;;4261162;33;20186;-64
2022/08/24 02:48:16;;;;;;;8.85;6.55;;;;;;;;;;4261100;33;20650;-64
2022/08/24 02:50:45;;;;;;;10.35;6.30;;;;;;;;;;4254051;33;20112;-66
2022/08/24 02:53:13;;;;;;;15.20;6.53;;;;;;;;;;4245453;33;20460;-66
2022/08/24 02:55:40;;;;;;;10.50;6.28;;;;;;;;;;4235670;33;20552;-69
2022/08/24 02:58:07;;;;;;;17.70;8.10;;;;;;;;;;4239447;33;20501;-68
2022/08/24 03:00:35;;;;;;;12.75;6.75;;;;;;;;;;4239086;33;20458;-68
2022/08/24 03:03:01;;;;;;;15.32;7.78;;;;;;;;;;4240244;33;20535;-68
2022/08/24 03:05:27;;;;;;;11.25;7.05;;;;;;;;;;4225935;33;20441;-67
2022/08/24 03:07:54;;;;;;;12.88;6.93;;;;;;;;;;4238194;33;20124;-68
2022/08/24 03:10:20;;;;;;;12.37;6.95;;;;;;;;;;4232765;33;20135;-68
2022/08/24 03:12:48;;;;;;;12.30;6.72;;;;;;;;;;4231182;33;20540;-68
2022/08/24 03:15:16;;;;;;;16.33;7.18;;;;;;;;;;4232620;33;20161;-67
2022/08/24 03:17:42;;;;;;;19.70;8.70;;;;;;;;;;4236540;33;20113;-67
2022/08/24 03:20:10;;;;;;;14.60;7.32;;;;;;;;;;4246052;33;20120;-67
2022/08/24 03:22:37;;;;;;;18.30;8.48;;;;;;;;;;4246610;33;20145;-67
2022/08/24 03:25:04;;;;;;;14.13;7.60;;;;;;;;;;4246498;33;20100;-69
2022/08/24 03:27:30;;;;;;;17.77;7.78;;;;;;;;;;4246565;33;20089;-67
2022/08/24 03:29:56;;;;;;;11.70;7.03;;;;;;;;;;4245422;33;20680;-67
2022/08/24 03:32:22;;;;;;;18.40;7.10;;;;;;;;;;4239753;33;20108;-67
2022/08/24 03:34:48;;;;;;;9.70;6.65;;;;;;;;;;4237983;33;20196;-67
2022/08/24 03:37:15;;;;;;;17.05;7.28;;;;;;;;;;4238125;33;20093;-67
2022/08/24 03:39:41;;;;;;;11.27;6.05;;;;;;;;;;4236803;33;20128;-69
2022/08/24 03:42:07;;;;;;;15.38;7.10;;;;;;;;;;4238561;33;20121;-67
2022/08/24 03:44:33;;;;;;;12.65;6.28;;;;;;;;;;4230496;33;20561;-67
2022/08/24 03:47:00;;;;;;;13.05;7.10;;;;;;;;;;4237304;33;20321;-67
2022/08/24 03:49:26;;;;;;;9.73;5.80;;;;;;;;;;4238473;33;20136;-67
2022/08/24 03:51:52;;;;;;;22.52;6.37;;;;;;;;;;4237520;33;20113;-67
2022/08/24 03:54:18;;;;;;;12.25;6.00;;;;;;;;;;4237489;33;20142;-67
2022/08/24 03:56:44;;;;;;;11.82;6.15;;;;;;;;;;4230963;33;20117;-67
2022/08/24 03:59:10;;;;;;;15.68;6.12;;;;;;;;;;4237312;33;20220;-67
2022/08/24 04:01:37;;;;;;;12.98;5.87;;;;;;;;;;4234184;33;20125;-65
2022/08/24 04:04:03;;;;;;;13.65;5.95;;;;;;;;;;4232076;33;20112;-66
2022/08/24 04:06:29;;;;;;;12.35;6.07;;;;;;;;;;4231956;33;20136;-64
2022/08/24 04:08:56;;;;;;;11.45;6.10;;;;;;;;;;4231998;33;20117;-64
2022/08/24 04:11:24;;;;;;;8.30;5.78;;;;;;;;;;4231766;33;20184;-65
2022/08/24 04:13:52;;;;;;;11.80;5.80;;;;;;;;;;4238415;33;20179;-65
2022/08/24 04:16:19;;;;;;;14.43;5.70;;;;;;;;;;4241062;33;20572;-64
2022/08/24 04:18:46;;;;;;;8.50;5.30;;;;;;;;;;4231224;33;20112;-63
2022/08/24 04:21:24;;;;;;;10.85;6.37;;;;;;;;;;4230484;33;20123;-65
2022/08/24 04:23:51;;;;;;;19.75;6.05;;;;;;;;;;4229736;33;20116;-64
2022/08/24 04:26:18;;;;;;;8.30;5.55;;;;;;;;;;4229725;33;20556;-64
2022/08/24 04:28:44;;;;;;;8.65;5.45;;;;;;;;;;4229619;33;20113;-65
2022/08/24 04:31:10;;;;;;;11.27;5.85;;;;;;;;;;4229888;33;20200;-65
2022/08/24 04:33:37;;;;;;;13.95;6.00;;;;;;;;;;4229825;33;20543;-63
2022/08/24 04:36:07;;;;;;;8.48;5.00;;;;;;;;;;4230293;33;20104;-63
2022/08/24 04:38:33;;;;;;;8.77;6.03;;;;;;;;;;4242017;33;20199;-64
2022/08/24 04:40:59;;;;;;;11.60;5.12;;;;;;;;;;4258134;33;20116;-65
2022/08/24 04:43:25;;;;;;;9.55;4.75;;;;;;;;;;4257880;33;20128;-65
2022/08/24 04:45:51;;;;;;;9.45;4.12;;;;;;;;;;4260131;33;20131;-68
2022/08/24 04:48:17;;;;;;;9.95;4.32;;;;;;;;;;4260073;33;20604;-65
2022/08/24 04:50:43;;;;;;;9.20;4.57;;;;;;;;;;4260160;33;20186;-65
2022/08/24 04:53:12;;;;;;;7.78;4.45;;;;;;;;;;4262201;33;20135;-64
2022/08/24 04:55:43;;;;;;;7.50;5.35;;;;;;;;;;4262103;33;20536;-65
2022/08/24 04:58:11;;;;;;;18.58;5.10;;;;;;;;;;4262216;33;20115;-64
2022/08/24 05:00:37;;;;;;;14.90;4.62;;;;;;;;;;4262207;33;20107;-65
2022/08/24 05:03:03;;;;;;;11.40;4.55;;;;;;;;;;4262108;33;20116;-65
2022/08/24 05:05:29;;;;;;;7.93;4.37;;;;;;;;;;4262026;33;20539;-64
2022/08/24 05:07:56;;;;;;;13.65;4.53;;;;;;;;;;4262340;33;20153;-71
2022/08/24 05:10:22;;;;;;;17.98;4.80;;;;;;;;;;4247373;33;20122;-70
2022/08/24 05:12:48;;;;;;;6.55;4.47;;;;;;;;;;4247736;33;20092;-70
2022/08/24 05:15:15;;;;;;;19.52;5.57;;;;;;;;;;4247908;33;20195;-71
2022/08/24 05:17:41;;;;;;;10.07;5.30;;;;;;;;;;4247881;33;20104;-68
2022/08/24 05:20:09;;;;;;;16.87;5.80;;;;;;;;;;4247825;33;20222;-71
2022/08/24 05:22:36;;;;;;;17.35;5.75;;;;;;;;;;4247765;33;20593;-69
2022/08/24 05:25:03;;;;;;;11.07;5.93;;;;;;;;;;4247903;33;20120;-67
2022/08/24 05:27:29;;;;;;;19.00;6.03;;;;;;;;;;4247818;33;20456;-67
2022/08/24 05:29:55;;;;;;;9.27;5.28;;;;;;;;;;4247985;33;20254;-66
2022/08/24 05:32:21;;;;;;;11.45;6.07;;;;;;;;;;4247605;33;20112;-67
2022/08/24 05:34:48;;;;;;;15.10;5.82;;;;;;;;;;4247721;33;20516;-70
2022/08/24 05:37:14;;;;;;;13.43;5.93;;;;;;;;;;4250827;33;20175;-68
2022/08/24 05:39:40;;;;;;;14.98;7.15;;;;;;;;;;4261697;33;20188;-67
2022/08/24 05:42:06;;;;;;;8.65;5.05;;;;;;;;;;4261731;33;20097;-67
2022/08/24 05:44:32;;;;;;;9.07;6.45;;;;;;;;;;4261983;33;20147;-68
2022/08/24 05:46:59;;;;;;;13.62;5.87;;;;;;;;;;4261933;33;20103;-66
2022/08/24 05:49:26;;;;;;;14.35;5.15;;;;;;;;;;4261689;33;20127;-69
2022/08/24 05:51:52;;;;;;;15.45;5.00;;;;;;;;;;4261608;33;20524;-68
2022/08/24 05:54:19;;;;;;;10.07;4.97;;;;;;;;;;4261342;33;20201;-68
2022/08/24 05:56:45;;;;;;;13.15;4.82;;;;;;;;;;4246823;33;20124;-68
2022/08/24 05:59:13;;;;;;;10.27;5.32;;;;;;;;;;4248258;33;20127;-67
2022/08/24 06:01:40;;;;;;;12.43;5.47;;;;;;;;;;4261481;33;20223;-67
2022/08/24 06:04:06;;;;;;;6.40;4.78;;;;;;;;;;4260418;33;20131;-67
2022/08/24 06:06:32;;;;;;;12.02;5.32;;;;;;;;;;4261461;33;20127;-67
2022/08/24 06:09:00;;;;;;;10.30;5.55;;;;;;;;;;4248311;33;20108;-67
2022/08/24 06:11:27;;;;;;;8.23;5.22;;;;;;;;;;4248292;33;20483;-67
2022/08/24 06:13:54;;;;;;;10.35;5.78;;;;;;;;;;4261473;33;20112;-68
2022/08/24 06:16:21;;;;;;;17.73;7.18;;;;;;;;;;4261446;33;20108;-67
2022/08/24 06:18:48;;;;;;;16.98;6.62;;;;;;;;;;4261533;33;20174;-68
2022/08/24 06:21:18;;;;;;;12.57;7.35;;;;;;;;;;4261398;33;20116;-68
2022/08/24 06:23:44;;;;;;;10.45;6.57;;;;;;;;;;4261502;33;20132;-68
2022/08/24 06:28:56;;;;;;;;;;;;;;;;;;4250945;33;20127;-67
2022/08/24 06:31:23;;;;;;;15.68;8.10;;;;;;;;;;4261118;33;20102;-68
2022/08/24 06:33:49;;;;;;;11.35;6.90;;;;;;;;;;4261240;33;20235;-69
2022/08/24 06:36:15;;;;;;;10.20;5.87;;;;;;;;;;4261276;33;20119;-67
2022/08/24 06:38:42;;;;;;;10.90;5.70;;;;;;;;;;4261252;33;20116;-67
2022/08/24 06:41:08;;;;;;;10.25;5.70;;;;;;;;;;4261241;33;20508;-68
2022/08/24 06:43:35;;;;;;;7.12;5.03;;;;;;;;;;4261136;33;20187;-67
2022/08/24 06:46:02;;;;;;;10.13;5.00;;;;;;;;;;4261304;33;20203;-68
2022/08/24 06:48:29;;;;;;;9.57;5.72;;;;;;;;;;4247919;33;20524;-67
2022/08/24 06:50:56;;;;;;;8.73;5.20;;;;;;;;;;4261181;33;20119;-67
2022/08/24 06:53:23;;;;;;;8.85;3.70;;;;;;;;;;4260969;33;20111;-67
2022/08/24 06:55:56;;;;;;;10.52;4.20;;;;;;;;;;4261032;33;20107;-69
2022/08/24 06:58:27;;;;;;;5.40;3.45;;;;;;;;;;4248167;33;20119;-68
2022/08/24 07:00:55;;;;;;;6.30;3.40;;;;;;;;;;4248395;33;20092;-64
2022/08/24 07:03:21;;;;;;;6.60;3.70;;;;;;;;;;4260993;33;20143;-63
2022/08/24 07:05:55;;;;;;;6.95;4.50;;;;;;;;;;4261065;33;20112;-63
2022/08/24 07:08:22;;;;;;;6.55;3.47;;;;;;;;;;4260449;33;20164;-64
2022/08/24 07:10:48;;;;;;;5.07;3.62;;;;;;;;;;4261008;33;20112;-64
2022/08/24 07:13:14;;;;;;;7.47;3.80;;;;;;;;;;4260903;33;20789;-63
2022/08/24 07:15:41;;;;;;;9.07;3.45;;;;;;;;;;4261059;33;20112;-64
2022/08/24 07:18:10;;;;;;;11.30;3.65;;;;;;;;;;4247597;33;20191;-64
2022/08/24 07:20:37;;;;;;;10.55;4.18;;;;;;;;;;4260909;33;20128;-62
2022/08/24 07:23:06;;;;;;;4.45;3.03;;;;;;;;;;4261117;33;20152;-64
2022/08/24 07:25:32;;;;;;;11.02;3.78;;;;;;;;;;4247968;33;20516;-63
2022/08/24 07:27:59;;;;;;;5.10;3.22;;;;;;;;;;4260687;33;20108;-64
2022/08/24 07:30:26;;;;;;;8.27;3.37;;;;;;;;;;4260898;33;20429;-63
2022/08/24 07:32:53;;;;;;;8.52;3.12;;;;;;;;;;4260743;33;20140;-63
2022/08/24 07:35:19;;;;;;;3.85;3.35;;;;;;;;;;4260705;33;20172;-64
2022/08/24 07:37:45;;;;;;;4.32;3.45;;;;;;;;;;4260700;33;20114;-63
2022/08/24 07:40:11;;;;;;;10.25;3.47;;;;;;;;;;4260793;33;20128;-64
2022/08/24 07:42:39;;;;;;;7.47;3.10;;;;;;;;;;4260622;33;20132;-63
2022/08/24 07:45:06;;;;;;;8.90;3.35;;;;;;;;;;4260675;33;20202;-64
2022/08/24 07:47:32;;;;;;;6.60;3.67;;;;;;;;;;4260581;33;20643;-64
2022/08/24 07:49:58;;;;;;;7.90;3.45;;;;;;;;;;4260650;33;20129;-64
2022/08/24 07:52:24;;;;;;;11.38;4.32;;;;;;;;;;4260512;33;20135;-63
2022/08/24 07:54:50;;;;;;;6.07;3.28;;;;;;;;;;4260556;33;20143;-63
2022/08/24 07:57:17;;;;;;;5.07;3.25;;;;;;;;;;4260376;33;20100;-63
2022/08/24 07:59:43;;;;;;;9.95;3.37;;;;;;;;;;4260254;33;20536;-64
2022/08/24 08:02:10;;;;;;;7.43;4.07;;;;;;;;;;4257046;33;20228;-64
2022/08/24 08:04:36;;;;;;;5.50;3.40;;;;;;;;;;4256342;33;20143;-66
2022/08/24 08:07:03;;;;;;;8.02;3.78;;;;;;;;;;4242911;33;20116;-65
2022/08/24 08:09:29;;;;;;;7.55;3.53;;;;;;;;;;4256141;33;20128;-65
2022/08/24 08:11:55;;;;;;;6.68;3.87;;;;;;;;;;4256417;33;20130;-66
2022/08/24 08:14:21;;;;;;;6.32;3.95;;;;;;;;;;4256293;33;20731;-68
2022/08/24 08:16:47;;;;;;;6.05;2.87;;;;;;;;;;4256061;33;20785;-65
2022/08/24 08:19:13;;;;;;;3.65;3.12;;;;;;;;;;4255907;33;20227;-67
2022/08/24 08:24:36;;;;;;;5.68;3.42;;;;;;;;;;4256172;33;20193;-68
2022/08/24 08:27:03;;;;;;;8.25;3.20;;;;;;;;;;4256006;33;20214;-67
2022/08/24 08:29:31;;;;;;;6.12;3.25;;;;;;;;;;4255781;33;20119;-67
2022/08/24 08:31:57;;;;;;;6.50;2.80;;;;;;;;;;4259487;33;20215;-67
2022/08/24 08:34:23;;;;;;;4.68;2.72;;;;;;;;;;4260025;33;20113;-68
2022/08/24 08:36:49;;;;;;;11.38;3.60;;;;;;;;;;4260080;33;20096;-66
2022/08/24 08:39:17;;;;;;;9.70;3.45;;;;;;;;;;4260005;33;20103;-64
2022/08/24 08:42:05;;;;;;;6.35;2.65;;;;;;;;;;4260099;33;20108;-63
2022/08/24 08:44:52;;;;;;;8.70;3.30;;;;;;;;;;4260168;33;20116;-64
2022/08/24 08:47:33;;;;;;;4.85;3.75;;;;;;;;;;4246931;33;20496;-64
2022/08/24 08:50:07;;;;;;;10.13;3.17;;;;;;;;;;4260263;33;20215;-65
2022/08/24 08:52:52;;;;;;;5.57;2.95;;;;;;;;;;4260057;33;20112;-64
2022/08/24 08:55:42;;;;;;;7.30;2.45;;;;;;;;;;4260185;33;20465;-64
2022/08/24 08:58:51;;;;;;;7.03;2.42;;;;;;;;;;4259739;33;20104;-65
2022/08/24 09:01:25;;;;;;;5.90;2.75;;;;;;;;;;4248147;33;20104;-68
2022/08/24 09:04:04;;;;;;;5.93;2.53;;;;;;;;;;4259837;33;20097;-67
2022/08/24 09:07:02;;;;;;;9.82;3.50;;;;;;;;;;4260087;33;20111;-68
2022/08/24 09:09:46;;;;;;;3.58;2.95;;;;;;;;;;4257227;33;20128;-68
2022/08/24 09:12:19;;;;;;;2.90;2.10;;;;;;;;;;4256656;33;20120;-68
2022/08/24 09:14:51;;;;;;;5.85;3.30;;;;;;;;;;4243669;33;20147;-68
2022/08/24 09:18:00;;;;;;;5.05;2.92;;;;;;;;;;4256777;33;20532;-68
2022/08/24 09:20:50;;;;;;;4.43;2.35;;;;;;;;;;4243611;33;20132;-68
2022/08/24 09:23:31;;;;;;;7.05;3.28;;;;;;;;;;4244087;33;20117;-69
2022/08/24 09:26:19;;;;;;;6.37;2.72;;;;;;;;;;4259685;33;20596;-68
2022/08/24 09:28:54;;;;;;;9.70;2.90;;;;;;;;;;4259840;33;20097;-67
2022/08/24 09:31:28;;;;;;;8.63;2.78;;;;;;;;;;4248484;33;20116;-67
2022/08/24 09:34:29;;;;;;;5.78;2.60;;;;;;;;;;4248715;33;20101;-68
